Time;durP1;ratioP1;P1;durP2;ratioP2;P2;SDS_P1;SDS_P2;PMS_P1;PMS_P2;Temp;Humidity;BMP_temperature;BMP_pressure;BME280_temperature;BME280_humidity;BME280_pressure;Samples;Min_cycle;Max_cycle;Signal;HPM_P1;HPM_P2
2022/09/20 00:00:14;;;;;;;5.80;3.10;;;;;;;12.21;64.90;97937.00;5032372;28;20291;-71
2022/09/20 00:02:39;;;;;;;4.60;3.20;;;;;;;12.22;65.09;97941.28;5032923;28;20762;-71
2022/09/20 00:05:07;;;;;;;4.20;3.27;;;;;;;12.27;64.91;97938.22;5032570;28;20719;-71
2022/09/20 00:07:32;;;;;;;7.40;3.10;;;;;;;12.34;64.76;97938.47;5031278;28;20727;-69
2022/09/20 00:09:58;;;;;;;9.80;2.60;;;;;;;12.35;64.81;97937.50;5030769;28;20438;-71
2022/09/20 00:12:23;;;;;;;3.87;2.63;;;;;;;12.34;65.16;97923.53;5032237;28;20267;-70
2022/09/20 00:14:49;;;;;;;3.80;2.60;;;;;;;12.39;65.03;97930.97;5032682;28;20207;-70
2022/09/20 00:17:14;;;;;;;4.20;2.57;;;;;;;12.35;65.05;97922.53;5026255;28;20187;-70
2022/09/20 00:19:40;;;;;;;3.93;2.53;;;;;;;12.35;64.95;97932.25;5032829;28;20300;-70
2022/09/20 00:22:05;;;;;;;4.20;2.47;;;;;;;12.34;65.21;97931.44;5034872;28;20675;-70
2022/09/20 00:24:31;;;;;;;6.33;2.83;;;;;;;12.38;65.14;97935.41;5030206;28;20763;-71
2022/09/20 00:26:56;;;;;;;3.47;2.67;;;;;;;12.40;64.95;97932.63;5025632;28;20178;-70
2022/09/20 00:29:22;;;;;;;7.10;2.80;;;;;;;12.34;64.64;97928.81;5024223;28;20250;-71
2022/09/20 00:31:47;;;;;;;3.70;2.40;;;;;;;12.23;64.71;97924.56;5027014;28;20205;-71
2022/09/20 00:36:57;;;;;;;4.03;2.70;;;;;;;12.25;65.06;97929.66;5031162;28;20237;-70
2022/09/20 00:39:22;;;;;;;3.53;2.23;;;;;;;12.29;64.84;97925.75;5031730;28;20573;-71
2022/09/20 00:41:48;;;;;;;5.27;2.40;;;;;;;12.31;64.97;97918.56;5020819;28;20202;-70
2022/09/20 00:44:51;;;;;;;4.73;2.60;;;;;;;12.34;64.85;97925.31;5024807;28;20264;-70
2022/09/20 00:47:43;;;;;;;8.03;2.90;;;;;;;12.34;64.29;97928.81;5029716;28;20175;-70
2022/09/20 00:50:11;;;;;;;5.20;2.47;;;;;;;12.18;64.45;97926.78;5030353;28;20435;-71
2022/09/20 00:52:37;;;;;;;5.77;2.17;;;;;;;12.10;64.61;97921.41;5031771;28;20918;-72
2022/09/20 00:55:06;;;;;;;5.00;2.47;;;;;;;12.13;64.73;97929.03;5032072;28;20513;-71
2022/09/20 00:57:34;;;;;;;5.73;2.07;;;;;;;12.11;64.84;97926.53;5031157;28;20217;-71
2022/09/20 01:00:02;;;;;;;4.37;2.50;;;;;;;12.14;65.11;97920.97;5030405;28;20462;-72
2022/09/20 01:02:29;;;;;;;4.33;2.20;;;;;;;12.15;64.84;97932.34;5024760;28;20508;-72
2022/09/20 01:04:56;;;;;;;2.73;2.00;;;;;;;12.17;64.98;97921.66;5031953;28;20422;-71
2022/09/20 01:07:22;;;;;;;5.33;2.50;;;;;;;12.10;65.20;97924.06;5028477;28;20425;-71
2022/09/20 01:09:48;;;;;;;5.50;2.30;;;;;;;12.09;65.26;97930.28;5031593;28;20422;-71
2022/09/20 01:12:17;;;;;;;6.60;2.40;;;;;;;12.14;65.15;97922.78;5031263;28;20418;-71
2022/09/20 01:14:44;;;;;;;10.37;2.67;;;;;;;12.08;64.43;97918.94;5031539;28;20438;-72
2022/09/20 01:17:10;;;;;;;2.73;2.20;;;;;;;12.07;64.67;97919.06;5029399;28;20434;-71
2022/09/20 01:20:00;;;;;;;3.97;2.30;;;;;;;12.06;64.75;97922.66;5029973;28;20453;-70
2022/09/20 01:22:37;;;;;;;4.00;2.60;;;;;;;12.08;64.69;97924.19;5036414;28;20195;-72
2022/09/20 01:25:10;;;;;;;5.10;2.50;;;;;;;12.14;64.60;97928.88;5030120;28;20421;-71
2022/09/20 01:27:45;;;;;;;9.50;2.83;;;;;;;12.17;64.82;97926.94;5028996;28;20417;-70
2022/09/20 01:30:17;;;;;;;5.27;2.70;;;;;;;12.16;64.31;97920.81;5031709;28;20434;-70
2022/09/20 01:33:09;;;;;;;3.60;2.10;;;;;;;12.15;64.37;97921.81;5036489;28;20425;-70
2022/09/20 01:35:35;;;;;;;4.63;2.17;;;;;;;12.15;63.87;97924.47;5024870;28;20544;-70
2022/09/20 01:38:17;;;;;;;2.50;2.17;;;;;;;12.14;63.48;97918.34;5032237;28;20502;-71
2022/09/20 01:41:05;;;;;;;8.23;2.63;;;;;;;12.13;63.27;97921.94;5029730;28;20242;-71
2022/09/20 01:43:52;;;;;;;6.13;2.67;;;;;;;12.12;63.96;97917.66;5021047;28;20553;-71
2022/09/20 01:46:32;;;;;;;12.07;2.53;;;;;;;12.12;64.24;97922.09;5026252;28;20441;-72
2022/09/20 01:49:22;;;;;;;7.07;2.10;;;;;;;12.13;64.08;97914.06;5021796;28;20441;-71
2022/09/20 01:51:56;;;;;;;5.83;2.80;;;;;;;12.18;64.28;97913.63;5022891;28;20443;-72
2022/09/20 01:54:36;;;;;;;7.10;2.00;;;;;;;12.19;64.44;97917.09;5023032;28;20435;-72
2022/09/20 01:57:23;;;;;;;6.30;2.73;;;;;;;12.16;64.29;97912.13;5015861;28;20427;-72
2022/09/20 01:59:57;;;;;;;9.03;2.37;;;;;;;12.12;63.68;97915.03;5018479;28;20545;-70
2022/09/20 02:03:00;;;;;;;3.30;2.20;;;;;;;12.13;63.11;97916.69;5022036;28;20413;-71
2022/09/20 02:05:46;;;;;;;5.53;2.20;;;;;;;12.10;63.52;97916.16;5023566;28;20488;-71
2022/09/20 02:08:17;;;;;;;4.13;2.10;;;;;;;12.12;63.38;97915.03;5025776;28;20438;-72
2022/09/20 02:10:49;;;;;;;7.40;2.30;;;;;;;12.11;63.97;97920.44;5025790;28;20449;-69
2022/09/20 02:13:28;;;;;;;5.30;1.80;;;;;;;12.05;64.15;97913.97;5018886;28;20423;-71
2022/09/20 02:16:02;;;;;;;2.60;2.30;;;;;;;12.05;64.46;97915.75;5020998;28;20463;-72
2022/09/20 02:18:42;;;;;;;4.50;2.30;;;;;;;12.07;64.70;97917.28;5022277;28;20421;-71
2022/09/20 02:21:20;;;;;;;4.43;2.40;;;;;;;12.14;64.75;97910.47;5022639;28;20463;-71
2022/09/20 02:24:26;;;;;;;5.63;2.23;;;;;;;12.12;64.60;97909.78;5023495;28;20422;-71
2022/09/20 02:27:17;;;;;;;10.60;2.60;;;;;;;12.14;64.52;97913.09;5024320;28;20450;-71
2022/09/20 02:30:24;;;;;;;5.10;2.20;;;;;;;12.21;64.53;97904.66;5018149;28;20777;-70
2022/09/20 02:33:04;;;;;;;3.73;2.03;;;;;;;12.20;64.65;97911.69;5022940;28;20415;-71
2022/09/20 02:35:38;;;;;;;14.13;2.40;;;;;;;12.19;64.86;97903.97;5020893;28;20429;-72
2022/09/20 02:38:24;;;;;;;12.10;2.90;;;;;;;12.19;64.91;97906.59;5029488;28;20437;-72
2022/09/20 02:41:07;;;;;;;5.87;2.37;;;;;;;12.22;64.84;97908.94;5033262;28;20465;-72
2022/09/20 02:43:39;;;;;;;8.97;2.23;;;;;;;12.19;64.57;97904.78;5032250;28;20433;-70
2022/09/20 02:46:29;;;;;;;3.80;2.50;;;;;;;12.19;64.73;97919.72;5031269;28;20463;-70
2022/09/20 02:49:12;;;;;;;5.10;2.67;;;;;;;12.20;65.12;97913.50;5025864;28;20419;-71
2022/09/20 02:52:30;;;;;;;4.70;2.43;;;;;;;12.18;65.03;97918.88;5024527;28;20902;-71
2022/09/20 02:55:08;;;;;;;2.90;2.50;;;;;;;12.21;65.44;97918.59;4973663;28;20422;-70
2022/09/20 02:58:06;;;;;;;6.40;3.73;;;;;;;12.20;65.32;97921.38;5028089;28;20422;-70
2022/09/20 03:00:39;;;;;;;6.07;3.60;;;;;;;12.07;65.83;97922.53;5029098;28;20462;-70
2022/09/20 03:03:19;;;;;;;2.50;2.30;;;;;;;12.09;66.03;97914.50;5028868;28;20422;-71
2022/09/20 03:06:01;;;;;;;3.13;2.70;;;;;;;12.14;65.88;97918.34;5028967;28;20477;-71
2022/09/20 03:08:36;;;;;;;4.93;2.60;;;;;;;12.21;65.60;97921.22;5028331;28;20517;-71
2022/09/20 03:11:10;;;;;;;3.43;2.70;;;;;;;12.18;65.57;97923.31;5026511;28;20504;-71
2022/09/20 03:13:54;;;;;;;5.20;2.53;;;;;;;12.14;65.12;97925.44;5035571;28;20457;-71
2022/09/20 03:16:41;;;;;;;8.53;2.60;;;;;;;12.11;65.66;97920.44;5029046;28;20419;-73
2022/09/20 03:19:21;;;;;;;3.87;2.30;;;;;;;12.07;65.72;97925.19;5030137;28;20493;-70
2022/09/20 03:22:01;;;;;;;15.57;2.50;;;;;;;12.11;65.71;97921.25;5026125;28;20442;-72
2022/09/20 03:24:48;;;;;;;3.03;2.30;;;;;;;12.13;65.25;97919.31;5028406;28;20899;-71
2022/09/20 03:27:27;;;;;;;5.20;2.20;;;;;;;12.11;64.72;97923.91;5030941;28;20441;-71
2022/09/20 03:29:55;;;;;;;8.30;2.10;;;;;;;12.09;64.71;97923.22;5033693;28;20414;-70
2022/09/20 03:32:26;;;;;;;3.50;2.03;;;;;;;12.08;64.65;97928.63;5033374;28;20437;-71
2022/09/20 03:35:18;;;;;;;4.47;2.30;;;;;;;12.07;64.81;97927.81;5017050;28;20435;-72
2022/09/20 03:37:47;;;;;;;4.83;2.40;;;;;;;12.10;64.83;97927.50;5013438;28;20452;-71
2022/09/20 03:40:35;;;;;;;3.27;2.23;;;;;;;12.01;65.28;97932.81;5031225;28;20470;-73
2022/09/20 03:43:28;;;;;;;3.90;2.20;;;;;;;12.04;65.69;97932.50;5027715;28;20434;-72
2022/09/20 03:46:06;;;;;;;5.80;2.37;;;;;;;12.05;66.11;97928.91;5026922;28;20426;-72
2022/09/20 03:48:49;;;;;;;8.33;2.80;;;;;;;12.04;66.14;97925.44;5025322;28;20430;-71
2022/09/20 03:51:25;;;;;;;4.03;2.27;;;;;;;12.09;65.84;97927.66;5032076;28;20442;-71
2022/09/20 03:54:25;;;;;;;3.67;2.60;;;;;;;12.12;65.63;97925.56;5031763;28;20479;-71
2022/09/20 03:57:05;;;;;;;6.90;3.50;;;;;;;12.07;65.63;97926.97;5028198;28;20418;-72
2022/09/20 03:59:33;;;;;;;7.60;3.70;;;;;;;12.10;65.54;97935.38;5023449;28;20446;-71
2022/09/20 04:02:04;;;;;;;6.07;3.37;;;;;;;12.13;65.47;97937.72;5032189;28;20450;-71
2022/09/20 04:04:48;;;;;;;3.60;2.50;;;;;;;12.14;65.83;97941.19;5024657;28;20880;-72
2022/09/20 04:07:26;;;;;;;10.87;2.80;;;;;;;12.15;65.33;97937.59;5033122;28;20525;-72
2022/09/20 04:10:02;;;;;;;4.33;2.63;;;;;;;12.12;65.52;97936.06;5032427;28;20414;-72
2022/09/20 04:13:05;;;;;;;3.93;2.13;;;;;;;12.13;65.53;97937.72;5030225;28;20457;-71
2022/09/20 04:15:39;;;;;;;4.10;2.50;;;;;;;12.06;65.92;97939.28;5032451;28;20819;-72
2022/09/20 04:18:34;;;;;;;2.77;2.53;;;;;;;12.11;65.68;97946.72;5031235;28;20519;-72
2022/09/20 04:21:09;;;;;;;5.90;3.67;;;;;;;12.10;65.63;97932.75;5030216;28;20497;-73
2022/09/20 04:23:46;;;;;;;7.77;4.17;;;;;;;12.11;65.43;97944.09;4998354;28;20472;-72
2022/09/20 04:26:14;;;;;;;5.87;3.67;;;;;;;12.11;65.13;97937.03;5028030;28;21239;-72
2022/09/20 04:28:46;;;;;;;9.33;2.87;;;;;;;12.07;65.42;97946.19;5013312;28;20501;-71
2022/09/20 04:31:24;;;;;;;3.73;2.23;;;;;;;12.12;65.33;97949.19;5031272;28;20441;-71
2022/09/20 04:33:50;;;;;;;3.97;2.30;;;;;;;12.13;66.21;97947.41;5031824;28;20422;-72
2022/09/20 04:36:53;;;;;;;8.60;2.50;;;;;;;12.15;66.25;97948.09;5032739;28;20524;-71
2022/09/20 04:39:33;;;;;;;11.93;2.47;;;;;;;12.19;66.29;97948.63;5030114;28;20548;-71
2022/09/20 04:42:24;;;;;;;4.63;2.50;;;;;;;12.16;66.87;97947.09;5029224;28;20454;-70
2022/09/20 04:45:15;;;;;;;6.10;2.83;;;;;;;12.19;66.80;97954.72;5026273;28;20526;-71
2022/09/20 04:48:07;;;;;;;3.13;2.30;;;;;;;12.21;66.84;97955.41;5030128;28;20505;-70
2022/09/20 04:51:01;;;;;;;5.07;2.40;;;;;;;12.26;66.74;97962.84;5024845;28;20454;-71
2022/09/20 04:53:51;;;;;;;13.23;2.90;;;;;;;12.20;67.05;97971.31;5030816;28;20414;-71
2022/09/20 04:56:40;;;;;;;5.70;3.10;;;;;;;12.18;66.90;97963.56;5029682;28;20991;-71
2022/09/20 04:59:08;;;;;;;4.20;2.63;;;;;;;12.21;67.55;97965.91;5029159;28;20967;-70
2022/09/20 05:02:08;;;;;;;3.27;2.30;;;;;;;12.21;67.83;97970.34;5031406;28;20893;-70
2022/09/20 05:04:54;;;;;;;8.40;2.17;;;;;;;12.25;67.58;97976.97;5024056;28;20403;-71
2022/09/20 05:07:44;;;;;;;8.23;2.53;;;;;;;12.26;67.75;97968.09;5028900;28;20574;-71
2022/09/20 05:10:10;;;;;;;6.57;2.57;;;;;;;12.30;67.96;97974.72;5018190;28;20785;-72
2022/09/20 05:12:52;;;;;;;7.40;2.63;;;;;;;12.31;67.68;97984.28;5018154;28;20477;-71
2022/09/20 05:15:46;;;;;;;7.50;3.27;;;;;;;12.29;67.77;97976.50;5023057;28;20195;-71
2022/09/20 05:18:21;;;;;;;6.33;2.73;;;;;;;12.26;67.36;97981.25;5023156;28;20426;-70
2022/09/20 05:21:21;;;;;;;12.17;3.13;;;;;;;12.20;67.71;97977.38;5021477;28;20832;-71
2022/09/20 05:24:24;;;;;;;7.23;3.63;;;;;;;12.25;67.44;97985.69;5027341;28;20469;-71
2022/09/20 05:27:28;;;;;;;7.40;3.23;;;;;;;12.25;67.59;97990.94;5018659;28;20426;-70
2022/09/20 05:30:05;;;;;;;5.10;2.73;;;;;;;12.29;67.35;97988.84;5020150;28;20897;-71
2022/09/20 05:32:43;;;;;;;8.80;3.10;;;;;;;12.27;67.15;97988.16;5020448;28;20443;-71
2022/09/20 05:35:18;;;;;;;5.37;2.67;;;;;;;12.29;67.05;97992.28;5018419;28;20426;-71
2022/09/20 05:38:04;;;;;;;7.37;2.73;;;;;;;12.30;66.82;97995.75;5029999;28;20483;-72
2022/09/20 05:40:48;;;;;;;8.70;2.70;;;;;;;12.31;66.76;97986.91;5033285;28;20469;-72
2022/09/20 05:43:34;;;;;;;4.40;2.70;;;;;;;12.35;66.70;97988.25;5041366;28;20457;-71
2022/09/20 05:46:34;;;;;;;5.17;2.57;;;;;;;12.31;66.68;98000.03;5046551;28;20867;-71
2022/09/20 05:49:30;;;;;;;4.80;2.40;;;;;;;12.37;66.87;97994.19;5043701;28;20421;-72
2022/09/20 05:52:02;;;;;;;6.87;2.87;;;;;;;12.49;66.60;97997.47;5041703;28;20448;-72
2022/09/20 05:54:51;;;;;;;7.07;3.30;;;;;;;12.55;66.63;97996.88;5023365;28;20422;-71
2022/09/20 05:58:00;;;;;;;8.63;3.17;;;;;;;12.65;66.97;98004.75;5031226;28;20459;-71
2022/09/20 06:00:29;;;;;;;6.13;2.87;;;;;;;12.77;66.92;98007.16;5023419;28;20492;-70
2022/09/20 06:03:14;;;;;;;6.23;3.20;;;;;;;12.80;66.42;98012.16;5042969;28;20422;-71
2022/09/20 06:05:54;;;;;;;5.87;2.60;;;;;;;12.81;66.69;98006.72;5029225;28;20423;-70
2022/09/20 06:08:32;;;;;;;5.97;2.73;;;;;;;12.85;66.58;98017.81;5024159;28;20510;-73
2022/09/20 06:11:13;;;;;;;7.63;3.00;;;;;;;12.86;66.41;98011.53;5031024;28;20447;-72
2022/09/20 06:13:59;;;;;;;3.80;2.40;;;;;;;12.90;66.28;98007.66;5026287;28;20426;-70
2022/09/20 06:16:57;;;;;;;7.00;2.87;;;;;;;12.95;66.50;98015.94;5013988;28;20445;-71
2022/09/20 06:19:34;;;;;;;4.57;2.80;;;;;;;13.10;66.56;98012.81;5009671;28;20558;-72
2022/09/20 06:22:15;;;;;;;4.50;2.90;;;;;;;13.19;66.50;98015.34;5020344;28;20461;-71
2022/09/20 06:24:48;;;;;;;5.37;2.83;;;;;;;13.27;65.96;98016.44;5025070;28;20422;-71
2022/09/20 06:27:18;;;;;;;4.67;2.67;;;;;;;13.31;66.02;98009.88;5024728;28;20918;-73
2022/09/20 06:29:48;;;;;;;8.93;3.30;;;;;;;13.34;65.64;98015.69;5032879;28;20508;-74
2022/09/20 06:32:17;;;;;;;9.70;3.40;;;;;;;13.38;65.44;98010.94;5026704;28;20506;-72
2022/09/20 06:34:43;;;;;;;7.70;3.73;;;;;;;13.46;65.38;98007.59;5032900;28;20434;-72
2022/09/20 06:42:49;;;;;;;11.50;3.90;;;;;;;13.72;64.88;98012.09;5037622;28;20444;-71
2022/09/20 06:45:14;;;;;;;7.93;3.10;;;;;;;13.74;64.32;98018.00;5046112;28;20952;-72
2022/09/20 06:47:39;;;;;;;6.83;3.13;;;;;;;13.76;64.08;98024.78;5027101;28;20239;-70
2022/09/20 06:50:05;;;;;;;6.77;3.00;;;;;;;13.78;63.98;98028.13;5036364;28;20205;-72
2022/09/20 06:52:31;;;;;;;7.67;3.03;;;;;;;13.81;64.22;98027.78;5027886;28;20190;-72
2022/09/20 06:54:57;;;;;;;18.90;3.60;;;;;;;13.84;64.13;98037.22;5026005;28;20449;-71
2022/09/20 06:57:29;;;;;;;6.47;3.17;;;;;;;13.82;64.21;98029.44;5031278;28;20705;-72
2022/09/20 06:59:54;;;;;;;7.03;3.47;;;;;;;13.82;64.25;98039.97;5022463;28;20201;-71
2022/09/20 07:02:20;;;;;;;8.60;3.63;;;;;;;13.80;64.22;98038.50;5043922;28;20438;-72
2022/09/20 07:04:45;;;;;;;13.70;3.20;;;;;;;13.84;63.71;98034.56;5025057;28;20212;-74
2022/09/20 07:07:15;;;;;;;13.27;3.57;;;;;;;13.98;64.09;98034.03;5026806;28;20216;-72
2022/09/20 07:09:40;;;;;;;10.00;2.90;;;;;;;14.16;64.11;98033.16;5038836;28;20661;-73
2022/09/20 07:12:10;;;;;;;8.73;3.27;;;;;;;14.38;63.83;98029.16;5029422;28;20462;-72
2022/09/20 07:14:36;;;;;;;12.53;3.40;;;;;;;14.63;63.06;98031.06;5035239;28;20183;-71
2022/09/20 07:17:03;;;;;;;8.53;3.50;;;;;;;14.91;63.06;98034.38;5027935;28;20430;-71
2022/09/20 07:19:28;;;;;;;15.50;3.30;;;;;;;15.17;62.00;98038.75;5043080;28;20576;-72
2022/09/20 07:21:54;;;;;;;6.43;3.03;;;;;;;15.41;60.35;98039.78;5033137;28;20449;-72
2022/09/20 07:24:19;;;;;;;7.87;2.70;;;;;;;15.61;59.69;98045.59;5038790;28;20195;-71
2022/09/20 07:26:55;;;;;;;8.87;3.20;;;;;;;15.74;58.96;98043.28;5041846;28;20186;-71
2022/09/20 07:29:21;;;;;;;8.60;3.10;;;;;;;15.91;58.62;98040.66;5035586;28;20525;-71
2022/09/20 07:31:47;;;;;;;10.87;3.10;;;;;;;16.03;58.58;98041.97;5042266;28;20831;-72
2022/09/20 07:34:13;;;;;;;7.00;2.90;;;;;;;16.17;58.26;98045.75;5027915;28;20455;-72
2022/09/20 07:36:38;;;;;;;7.20;2.50;;;;;;;16.30;57.49;98047.88;5042838;28;20472;-72
2022/09/20 07:39:04;;;;;;;12.60;2.50;;;;;;;16.37;56.84;98053.31;5034489;28;20679;-74
2022/09/20 07:41:30;;;;;;;7.13;2.40;;;;;;;16.43;55.60;98044.72;5035691;28;20261;-72
2022/09/20 07:44:19;;;;;;;14.43;2.60;;;;;;;16.40;56.02;98053.81;5022195;28;20180;-72
2022/09/20 07:46:42;;;;;;;10.27;2.70;;;;;;;16.49;55.86;98053.81;5030734;28;20443;-72
2022/09/20 07:49:07;;;;;;;8.10;3.20;;;;;;;16.53;55.17;98057.75;5028090;28;20791;-72
2022/09/20 07:51:33;;;;;;;13.63;3.20;;;;;;;16.48;53.43;98057.44;5020500;28;20436;-73
2022/09/20 07:53:58;;;;;;;8.33;3.27;;;;;;;16.49;54.05;98065.19;5035746;28;20220;-71
2022/09/20 07:56:24;;;;;;;14.13;2.60;;;;;;;16.65;54.65;98059.03;5037734;28;20195;-73
2022/09/20 07:58:50;;;;;;;7.80;2.50;;;;;;;16.60;53.10;98061.38;5029230;28;20292;-71
2022/09/20 08:01:15;;;;;;;8.23;2.20;;;;;;;16.61;52.59;98065.66;5040769;28;20253;-72
2022/09/20 08:03:41;;;;;;;12.53;2.93;;;;;;;16.73;52.93;98064.31;5039630;28;20419;-71
2022/09/20 08:06:09;;;;;;;5.27;2.10;;;;;;;16.74;51.28;98057.19;5042766;28;20198;-70
2022/09/20 08:08:37;;;;;;;7.37;2.30;;;;;;;17.03;51.42;98059.25;5035753;28;20515;-71
2022/09/20 08:11:08;;;;;;;4.17;1.50;;;;;;;17.33;50.28;98077.13;5025646;28;20443;-71
2022/09/20 08:13:37;;;;;;;6.27;1.80;;;;;;;17.63;49.80;98071.97;5030197;28;20800;-71
2022/09/20 08:16:04;;;;;;;12.07;2.10;;;;;;;17.75;50.08;98077.72;5029527;28;20926;-71
2022/09/20 08:18:30;;;;;;;4.57;2.07;;;;;;;18.13;50.00;98077.78;5025691;28;20410;-71
2022/09/20 08:20:55;;;;;;;9.00;2.30;;;;;;;18.49;49.55;98078.91;5032916;28;20589;-71
2022/09/20 08:23:21;;;;;;;10.43;2.10;;;;;;;18.78;48.00;98072.78;5038786;28;20183;-72
2022/09/20 08:25:48;;;;;;;9.53;2.50;;;;;;;19.06;46.78;98082.75;5032740;28;20180;-72
2022/09/20 08:28:13;;;;;;;7.53;2.00;;;;;;;19.09;45.52;98082.41;5032828;28;20546;-73
2022/09/20 08:30:39;;;;;;;12.93;2.30;;;;;;;19.00;46.96;98079.03;5036686;28;20439;-71
2022/09/20 08:33:05;;;;;;;6.50;2.70;;;;;;;18.88;46.22;98081.31;5036763;28;20184;-72
2022/09/20 08:35:34;;;;;;;6.07;2.10;;;;;;;18.70;44.23;98079.03;5039234;28;20298;-71
2022/09/20 08:38:00;;;;;;;7.90;1.63;;;;;;;18.71;44.94;98080.66;5033875;28;20414;-73
2022/09/20 08:40:27;;;;;;;10.10;2.50;;;;;;;18.67;46.29;98076.72;5029989;28;20465;-69
2022/09/20 08:42:53;;;;;;;5.03;1.80;;;;;;;18.95;45.13;98080.59;5029981;28;20266;-70
2022/09/20 08:45:21;;;;;;;7.33;2.13;;;;;;;19.16;45.42;98077.16;5045755;28;20418;-71
2022/09/20 08:47:50;;;;;;;6.23;1.90;;;;;;;19.42;42.23;98076.63;5031259;28;20180;-70
2022/09/20 08:50:15;;;;;;;8.10;1.87;;;;;;;19.70;41.94;98078.56;5045891;28;20427;-69
2022/09/20 08:52:44;;;;;;;6.23;1.70;;;;;;;19.48;40.49;98083.88;5041941;28;20912;-71
2022/09/20 08:55:39;;;;;;;3.90;1.57;;;;;;;19.10;41.42;98083.22;5028500;28;20180;-71
2022/09/20 08:58:04;;;;;;;5.63;1.70;;;;;;;19.01;41.69;98083.31;5040932;28;20464;-70
2022/09/20 09:00:31;;;;;;;5.20;1.70;;;;;;;19.01;41.71;98074.53;5044226;28;20462;-70
2022/09/20 09:03:11;;;;;;;6.00;2.03;;;;;;;18.92;41.70;98079.09;5047445;28;20723;-72
2022/09/20 09:05:39;;;;;;;8.00;2.30;;;;;;;18.87;41.83;98084.97;5045780;28;20406;-71
2022/09/20 09:08:15;;;;;;;6.10;1.87;;;;;;;18.62;41.62;98086.25;5047917;28;20928;-72
2022/09/20 09:10:45;;;;;;;9.03;1.73;;;;;;;18.50;42.47;98080.56;5036513;28;20442;-71
2022/09/20 09:13:20;;;;;;;5.03;1.73;;;;;;;18.25;42.65;98084.28;5030836;28;20406;-72
2022/09/20 09:15:48;;;;;;;4.83;1.50;;;;;;;17.90;42.70;98089.16;5022074;28;20446;-72
2022/09/20 09:18:13;;;;;;;4.57;1.70;;;;;;;17.69;43.67;98086.34;5044110;28;20420;-72
2022/09/20 09:20:42;;;;;;;5.87;1.50;;;;;;;17.52;44.55;98085.66;5043373;28;20817;-71
2022/09/20 09:23:24;;;;;;;12.37;2.10;;;;;;;17.39;45.15;98086.22;5046836;28;20179;-70
2022/09/20 09:25:50;;;;;;;7.03;1.67;;;;;;;17.41;45.76;98089.50;5044824;28;20469;-71
2022/09/20 09:28:16;;;;;;;6.70;1.90;;;;;;;17.88;45.29;98085.06;5041358;28;20410;-71
2022/09/20 09:30:45;;;;;;;4.27;1.70;;;;;;;18.37;43.00;98076.69;5046130;28;20426;-71
2022/09/20 09:33:30;;;;;;;5.97;1.80;;;;;;;18.99;43.64;98074.72;5039523;28;20430;-72
2022/09/20 09:36:26;;;;;;;6.37;2.00;;;;;;;19.59;42.42;98076.41;5038608;28;20425;-70
2022/09/20 09:39:22;;;;;;;14.33;2.23;;;;;;;20.13;41.50;98067.09;5038118;28;20454;-71
2022/09/20 09:41:47;;;;;;;8.10;1.70;;;;;;;20.53;38.49;98061.25;5031973;28;20530;-70
2022/09/20 09:44:24;;;;;;;5.70;1.70;;;;;;;20.87;38.11;98062.25;5046962;28;20528;-71
2022/09/20 09:46:50;;;;;;;4.53;1.30;;;;;;;21.29;35.90;98056.88;5028134;28;20179;-72
2022/09/20 09:49:21;;;;;;;4.30;1.30;;;;;;;21.45;35.60;98053.03;5040784;28;20432;-71
2022/09/20 09:52:03;;;;;;;3.43;1.50;;;;;;;21.41;34.80;98052.59;5042526;28;20443;-70
2022/09/20 09:54:33;;;;;;;3.33;1.40;;;;;;;21.04;35.48;98048.63;5024413;28;20468;-71
2022/09/20 09:57:04;;;;;;;8.13;1.37;;;;;;;20.56;36.83;98058.16;5043906;28;20444;-72
2022/09/20 09:59:39;;;;;;;6.00;1.93;;;;;;;20.12;38.56;98070.75;5028775;28;20454;-71
2022/09/20 10:02:35;;;;;;;4.90;1.43;;;;;;;19.75;38.26;98067.34;5025159;28;20430;-72
2022/09/20 10:05:03;;;;;;;6.43;1.77;;;;;;;19.33;39.55;98072.44;5031488;28;20413;-71
2022/09/20 10:07:40;;;;;;;5.80;1.73;;;;;;;19.02;39.84;98068.22;5035884;28;20413;-72
2022/09/20 10:10:44;;;;;;;7.53;1.50;;;;;;;18.73;40.59;98075.97;5019400;28;20831;-70
2022/09/20 10:13:18;;;;;;;5.13;1.43;;;;;;;18.57;41.24;98069.03;5037548;28;20419;-71
2022/09/20 10:15:50;;;;;;;4.37;1.50;;;;;;;18.34;42.26;98078.91;5021367;28;20926;-70
2022/09/20 10:18:46;;;;;;;3.63;1.43;;;;;;;18.41;42.43;98072.69;5041144;28;20469;-71
2022/09/20 10:21:18;;;;;;;5.37;1.67;;;;;;;18.32;42.57;98070.28;5018110;28;20488;-70
2022/09/20 10:24:05;;;;;;;5.70;1.53;;;;;;;18.23;44.71;98065.06;5038486;28;20439;-70
2022/09/20 10:26:36;;;;;;;4.80;1.60;;;;;;;18.23;43.43;98067.72;5022491;28;20469;-70
2022/09/20 10:29:07;;;;;;;9.00;1.90;;;;;;;18.31;43.31;98063.31;5024728;28;20909;-73
2022/09/20 10:31:36;;;;;;;7.37;1.87;;;;;;;18.26;43.49;98067.38;5024166;28;20490;-70
2022/09/20 10:34:09;;;;;;;9.47;1.80;;;;;;;18.32;43.46;98067.63;5022667;28;20422;-71
2022/09/20 10:36:56;;;;;;;7.20;1.50;;;;;;;18.43;42.32;98067.19;5016006;28;20946;-71
2022/09/20 10:39:29;;;;;;;9.37;1.97;;;;;;;18.56;42.47;98062.06;5006124;28;20422;-70
2022/09/20 10:45:19;;;;;;;7.80;1.80;;;;;;;18.58;41.77;98061.91;4992742;28;20996;-70
2022/09/20 10:47:59;;;;;;;16.13;1.90;;;;;;;18.50;41.80;98061.97;4992291;28;21091;-70
2022/09/20 10:50:45;;;;;;;7.60;1.70;;;;;;;18.25;41.62;98064.88;5022643;28;20469;-71
2022/09/20 10:53:47;;;;;;;5.60;1.40;;;;;;;18.06;41.98;98066.22;5039742;28;20433;-71
2022/09/20 10:56:15;;;;;;;7.20;2.20;;;;;;;17.95;42.52;98070.09;5042113;28;20417;-71
2022/09/20 10:59:02;;;;;;;5.20;2.07;;;;;;;17.86;42.86;98072.00;5046219;28;20415;-70
2022/09/20 11:01:46;;;;;;;4.53;1.93;;;;;;;17.80;42.43;98072.69;5033013;28;21078;-70
2022/09/20 11:04:49;;;;;;;5.10;1.60;;;;;;;17.76;43.09;98066.91;5043715;28;20966;-71
2022/09/20 11:07:18;;;;;;;7.40;1.80;;;;;;;17.78;43.24;98069.38;5047105;28;20411;-71
2022/09/20 11:09:49;;;;;;;5.10;1.50;;;;;;;17.77;42.68;98075.69;5039079;28;20418;-71
2022/09/20 11:12:34;;;;;;;5.30;1.57;;;;;;;17.75;42.67;98067.09;5041346;28;21165;-72
2022/09/20 11:15:11;;;;;;;4.77;1.50;;;;;;;17.93;43.04;98072.91;5044528;28;20425;-72
2022/09/20 11:17:52;;;;;;;7.70;2.10;;;;;;;18.44;42.71;98063.53;5038380;28;20508;-71
2022/09/20 11:20:25;;;;;;;4.83;1.63;;;;;;;18.94;41.57;98057.69;5048451;28;20475;-71
2022/09/20 11:23:24;;;;;;;6.07;1.60;;;;;;;19.55;40.45;98057.34;5042173;28;20413;-71
2022/09/20 11:26:10;;;;;;;4.50;1.30;;;;;;;20.18;38.74;98058.53;5039156;28;20430;-74
2022/09/20 11:28:46;;;;;;;5.90;1.27;;;;;;;20.69;37.81;98050.25;5024296;28;20422;-72
2022/09/20 11:31:43;;;;;;;6.13;1.33;;;;;;;21.27;35.64;98056.25;5036291;28;20807;-72
2022/09/20 11:34:42;;;;;;;5.20;1.43;;;;;;;21.57;32.65;98048.75;5009259;28;20438;-73
2022/09/20 11:37:08;;;;;;;12.30;1.40;;;;;;;21.79;33.46;98045.94;5018298;28;20445;-72
2022/09/20 11:39:45;;;;;;;8.73;1.70;;;;;;;22.03;33.82;98049.03;5036496;28;20457;-72
2022/09/20 11:42:15;;;;;;;4.30;1.67;;;;;;;21.86;32.92;98054.75;5037271;28;20214;-72
2022/09/20 11:44:41;;;;;;;4.67;0.90;;;;;;;21.47;31.86;98050.97;5044976;28;21030;-71
2022/09/20 11:47:16;;;;;;;5.03;1.57;;;;;;;20.93;33.71;98061.47;5034867;28;20514;-71
2022/09/20 11:49:44;;;;;;;7.53;2.17;;;;;;;20.47;35.09;98065.50;5048088;28;20421;-71
2022/09/20 11:52:47;;;;;;;7.77;1.47;;;;;;;20.16;35.67;98071.22;5047952;28;20474;-70
2022/09/20 11:55:33;;;;;;;5.13;1.50;;;;;;;19.75;36.01;98068.19;5017866;28;20419;-71
2022/09/20 11:58:01;;;;;;;2.83;1.30;;;;;;;19.54;36.08;98061.03;5041068;28;20776;-71
2022/09/20 12:00:32;;;;;;;3.97;1.30;;;;;;;19.28;37.06;98065.03;5038050;28;20465;-72
2022/09/20 12:02:58;;;;;;;3.10;1.70;;;;;;;19.17;36.11;98060.22;5028486;28;20441;-71
2022/09/20 12:05:38;;;;;;;3.73;1.40;;;;;;;19.20;35.96;98065.16;5032762;28;20466;-71
2022/09/20 12:08:17;;;;;;;5.63;1.80;;;;;;;19.09;35.01;98050.53;5044386;28;20815;-71
2022/09/20 12:10:54;;;;;;;3.23;1.60;;;;;;;19.08;34.99;98035.59;5035081;28;20431;-72
2022/09/20 12:13:23;;;;;;;6.47;2.53;;;;;;;19.34;34.70;98031.56;5047759;28;20818;-71
2022/09/20 12:16:02;;;;;;;2.70;1.53;;;;;;;19.55;33.73;98035.25;5040396;28;20423;-72
2022/09/20 12:18:34;;;;;;;4.67;1.90;;;;;;;19.78;34.80;98035.88;5050794;28;20425;-71
2022/09/20 12:21:04;;;;;;;2.80;1.50;;;;;;;19.88;35.09;98037.44;5033593;28;20558;-71
2022/09/20 12:23:56;;;;;;;6.27;1.90;;;;;;;20.04;34.63;98031.81;5036306;28;20413;-71
2022/09/20 12:26:21;;;;;;;2.80;1.50;;;;;;;20.34;35.07;98026.31;5044745;28;20430;-72